KCNU/CNU METAR and TAF weather

Enter ICAO airport designator
Station Type Date Time Source
KCNU METAR 2020/04/04 04:52 UTC NOAA

KCNU 040452Z AUTO 02006KT 10SM OVC012 01/M01 A3021 RMK AO2 SLP236 T00111011


Station Type Date Time Source
KCNU Decoded METAR 2020/04/04 04:52 UTC NOAA

CHANUTE JOHNSON AIRPORT, KS, United States (KCNU) 37-40N 95-29W 297M
Apr 04, 2020 - 12:52 AM EDT / 2020.04.04 0452 UTC
Wind: from the NNE (020 degrees) at 7 MPH (6 KT):0
Visibility: 10 mile(s):0
Sky conditions: overcast
Temperature: 34.0 F (1.1 C)
Windchill: 28 F (-2 C):1
Dew Point: 30.0 F (-1.1 C)
Relative Humidity: 85%
Pressure (altimeter): 30.21 in. Hg (1023 hPa)
ob: KCNU 040452Z AUTO 02006KT 10SM OVC012 01/M01 A3021 RMK AO2 SLP236 T00111011
cycle: 5

Station Type Date Time Source
KCNU TAF 2020/04/04 06:22 UTC NOAA

TAF KCNU 040520Z 0406/0506 02011KT P6SM OVC015
FM041500 04009KT P6SM SCT015 BKN025
FM041900 06008KT P6SM SCT030

Example: see airport list